Time;durP1;ratioP1;P1;durP2;ratioP2;P2;SDS_P1;SDS_P2;PMS_P1;PMS_P2;Temp;Humidity;BMP_temperature;BMP_pressure;BME280_temperature;BME280_humidity;BME280_pressure;Samples;Min_cycle;Max_cycle;Signal;HPM_P1;HPM_P2
2022/06/29 00:02:07;;;;;;;2.50;1.47;;;;;;;;;;5135773;27;20485;-70
2022/06/29 00:04:35;;;;;;;2.73;1.63;;;;;;;;;;5135531;27;20469;-70
2022/06/29 00:07:03;;;;;;;4.00;1.37;;;;;;;;;;5135367;27;21019;-71
2022/06/29 00:09:32;;;;;;;3.37;1.93;;;;;;;;;;5135291;27;20557;-70
2022/06/29 00:12:00;;;;;;;3.80;1.73;;;;;;;;;;5135042;27;20450;-70
2022/06/29 00:14:28;;;;;;;2.70;1.80;;;;;;;;;;5135806;27;20471;-70
2022/06/29 00:16:56;;;;;;;3.30;1.80;;;;;;;;;;5135507;27;20483;-71
2022/06/29 00:19:24;;;;;;;3.73;1.63;;;;;;;;;;5135317;27;20560;-70
2022/06/29 00:21:52;;;;;;;3.27;1.80;;;;;;;;;;5134911;27;20572;-71
2022/06/29 00:24:31;;;;;;;3.67;2.10;;;;;;;;;;5135490;27;20461;-70
2022/06/29 00:27:00;;;;;;;6.50;2.60;;;;;;;;;;5136500;27;20456;-71
2022/06/29 00:29:28;;;;;;;3.20;1.90;;;;;;;;;;5139504;27;20832;-70
2022/06/29 00:31:57;;;;;;;2.70;1.83;;;;;;;;;;5140351;27;20799;-70
2022/06/29 00:34:24;;;;;;;5.20;2.13;;;;;;;;;;5139736;27;20465;-70
2022/06/29 00:36:52;;;;;;;5.33;1.83;;;;;;;;;;5140176;27;20438;-71
2022/06/29 00:39:24;;;;;;;2.87;1.77;;;;;;;;;;5139531;27;20915;-70
2022/06/29 00:41:52;;;;;;;2.47;1.57;;;;;;;;;;5139840;27;20756;-70
2022/06/29 00:44:22;;;;;;;4.43;2.20;;;;;;;;;;5139332;27;20722;-71
2022/06/29 00:46:50;;;;;;;4.53;2.30;;;;;;;;;;5140003;27;20512;-70
2022/06/29 00:49:18;;;;;;;2.70;1.80;;;;;;;;;;5139422;27;20464;-71
2022/06/29 00:51:47;;;;;;;4.10;2.30;;;;;;;;;;5139176;27;20456;-70
2022/06/29 00:54:17;;;;;;;2.73;2.10;;;;;;;;;;5139376;27;20457;-71
2022/06/29 00:56:45;;;;;;;3.20;1.83;;;;;;;;;;5139073;27;20531;-71
2022/06/29 00:59:13;;;;;;;4.10;1.70;;;;;;;;;;5139558;27;20533;-71
2022/06/29 01:01:43;;;;;;;4.80;2.00;;;;;;;;;;5138697;27;20506;-70
2022/06/29 01:04:12;;;;;;;2.80;1.70;;;;;;;;;;5139430;27;20552;-71
2022/06/29 01:06:40;;;;;;;3.93;1.80;;;;;;;;;;5137427;27;20532;-70
2022/06/29 01:09:08;;;;;;;4.30;1.90;;;;;;;;;;5137324;27;20450;-70
2022/06/29 01:11:36;;;;;;;2.97;1.80;;;;;;;;;;5136735;27;20456;-71
2022/06/29 01:14:04;;;;;;;2.90;1.60;;;;;;;;;;5137436;27;20476;-70
2022/06/29 01:16:32;;;;;;;3.60;2.60;;;;;;;;;;5137394;27;20453;-70
2022/06/29 01:19:04;;;;;;;3.20;2.20;;;;;;;;;;5136255;27;20877;-70
2022/06/29 01:21:33;;;;;;;2.90;1.80;;;;;;;;;;5137744;27;20473;-70
2022/06/29 01:24:02;;;;;;;3.90;1.83;;;;;;;;;;5137746;27;20449;-70
2022/06/29 01:26:30;;;;;;;3.00;1.30;;;;;;;;;;5131297;27;20462;-70
2022/06/29 01:28:58;;;;;;;2.93;1.83;;;;;;;;;;5117667;28;20488;-71
2022/06/29 01:31:25;;;;;;;5.03;1.83;;;;;;;;;;5118054;27;20557;-71
2022/06/29 01:33:53;;;;;;;3.30;2.00;;;;;;;;;;5118736;28;20462;-71
2022/06/29 01:36:21;;;;;;;2.60;1.70;;;;;;;;;;5118270;27;20932;-71
2022/06/29 01:38:52;;;;;;;2.50;1.83;;;;;;;;;;5118685;28;20458;-70
2022/06/29 01:41:21;;;;;;;5.00;1.60;;;;;;;;;;5118054;28;20902;-71
2022/06/29 01:43:49;;;;;;;3.67;1.70;;;;;;;;;;5118145;27;20834;-70
2022/06/29 01:46:17;;;;;;;2.90;1.97;;;;;;;;;;5125554;27;20458;-71
2022/06/29 01:48:44;;;;;;;2.70;1.80;;;;;;;;;;5138462;27;20458;-71
2022/06/29 01:51:12;;;;;;;2.50;1.80;;;;;;;;;;5139264;27;20449;-71
2022/06/29 01:53:40;;;;;;;4.57;2.10;;;;;;;;;;5139131;27;20462;-71
2022/06/29 01:56:10;;;;;;;2.60;1.90;;;;;;;;;;5139566;27;20820;-71
2022/06/29 01:58:39;;;;;;;2.30;1.80;;;;;;;;;;5139067;27;20531;-71
2022/06/29 02:01:07;;;;;;;7.63;2.47;;;;;;;;;;5138029;27;20457;-71
2022/06/29 02:03:35;;;;;;;2.60;1.50;;;;;;;;;;5123043;27;20455;-71
2022/06/29 02:06:03;;;;;;;3.37;2.30;;;;;;;;;;5117158;27;20451;-71
2022/06/29 02:08:31;;;;;;;3.80;1.60;;;;;;;;;;5117704;27;20563;-70
2022/06/29 02:10:58;;;;;;;3.50;2.10;;;;;;;;;;5117080;27;20716;-70
2022/06/29 02:13:26;;;;;;;2.80;1.80;;;;;;;;;;5118408;27;20462;-71
2022/06/29 02:15:56;;;;;;;2.50;1.63;;;;;;;;;;5117040;28;20451;-71
2022/06/29 02:18:24;;;;;;;4.47;1.77;;;;;;;;;;5116618;27;20549;-71
2022/06/29 02:20:52;;;;;;;2.77;1.53;;;;;;;;;;5117093;27;20478;-70
2022/06/29 02:23:20;;;;;;;4.20;1.97;;;;;;;;;;5117420;27;20516;-71
2022/06/29 02:25:48;;;;;;;3.20;2.00;;;;;;;;;;5117094;27;20879;-70
2022/06/29 02:28:16;;;;;;;3.20;2.03;;;;;;;;;;5116803;27;20463;-70
2022/06/29 02:36:16;;;;;;;2.87;1.97;;;;;;;;;;5116165;27;20433;-70
2022/06/29 02:38:43;;;;;;;2.77;1.77;;;;;;;;;;5116770;27;20462;-70
2022/06/29 02:41:11;;;;;;;2.73;1.50;;;;;;;;;;5116631;28;20451;-70
2022/06/29 02:43:46;;;;;;;6.73;2.10;;;;;;;;;;5116706;27;20533;-71
2022/06/29 02:46:14;;;;;;;3.47;1.90;;;;;;;;;;5117135;27;20461;-71
2022/06/29 02:48:44;;;;;;;3.77;1.70;;;;;;;;;;5117985;27;20469;-71
2022/06/29 02:51:12;;;;;;;3.03;2.30;;;;;;;;;;5126452;27;20458;-71
2022/06/29 02:53:40;;;;;;;5.17;2.30;;;;;;;;;;5138169;27;20461;-71
2022/06/29 02:56:08;;;;;;;4.27;2.07;;;;;;;;;;5137093;27;20860;-71
2022/06/29 02:58:35;;;;;;;2.77;1.80;;;;;;;;;;5136228;27;20484;-71
2022/06/29 03:01:03;;;;;;;2.60;1.80;;;;;;;;;;5137156;27;20458;-71
2022/06/29 03:03:31;;;;;;;3.40;2.53;;;;;;;;;;5137188;27;20493;-70
2022/06/29 03:06:00;;;;;;;2.53;1.80;;;;;;;;;;5137420;27;20449;-70
2022/06/29 03:08:28;;;;;;;3.03;1.87;;;;;;;;;;5135523;27;20549;-71
2022/06/29 03:10:56;;;;;;;3.57;2.10;;;;;;;;;;5135824;27;20873;-70
2022/06/29 03:13:26;;;;;;;3.67;2.20;;;;;;;;;;5143997;27;20888;-71
2022/06/29 03:15:54;;;;;;;4.20;2.13;;;;;;;;;;5146101;27;20885;-71
2022/06/29 03:18:33;;;;;;;3.60;1.80;;;;;;;;;;5143704;27;20458;-71
2022/06/29 03:21:06;;;;;;;2.97;1.90;;;;;;;;;;5135511;27;20446;-70
2022/06/29 03:23:37;;;;;;;6.67;3.20;;;;;;;;;;5136306;27;20757;-71
2022/06/29 03:26:09;;;;;;;2.60;1.97;;;;;;;;;;5134748;27;20488;-70
2022/06/29 03:28:37;;;;;;;3.13;1.80;;;;;;;;;;5132475;27;20472;-71
2022/06/29 03:31:05;;;;;;;3.07;2.13;;;;;;;;;;5134276;27;20454;-70
2022/06/29 03:33:33;;;;;;;2.53;1.83;;;;;;;;;;5135163;27;20885;-70
2022/06/29 03:36:01;;;;;;;8.40;1.80;;;;;;;;;;5135157;27;21055;-70
2022/06/29 03:38:30;;;;;;;4.33;2.23;;;;;;;;;;5135660;27;20465;-70
2022/06/29 03:40:58;;;;;;;6.53;2.30;;;;;;;;;;5134770;27;20454;-70
2022/06/29 03:43:26;;;;;;;2.97;2.10;;;;;;;;;;5134815;27;20496;-70
2022/06/29 03:45:55;;;;;;;3.10;1.87;;;;;;;;;;5134096;27;20915;-69
2022/06/29 03:48:22;;;;;;;2.70;2.10;;;;;;;;;;5134836;27;20489;-70
2022/06/29 03:50:50;;;;;;;3.70;2.27;;;;;;;;;;5135501;27;20461;-69
2022/06/29 03:53:18;;;;;;;3.90;2.67;;;;;;;;;;5135598;27;20476;-70
2022/06/29 03:55:47;;;;;;;5.23;2.73;;;;;;;;;;5135198;27;20460;-71
2022/06/29 03:58:15;;;;;;;4.07;2.20;;;;;;;;;;5135709;27;20458;-70
2022/06/29 04:00:43;;;;;;;4.23;1.93;;;;;;;;;;5134886;27;20446;-71
2022/06/29 04:03:10;;;;;;;4.87;2.47;;;;;;;;;;5134686;27;20500;-70
2022/06/29 04:05:38;;;;;;;4.17;2.37;;;;;;;;;;5133215;27;20446;-70
2022/06/29 04:08:06;;;;;;;3.93;2.37;;;;;;;;;;5114603;28;20473;-70
2022/06/29 04:10:40;;;;;;;3.70;1.87;;;;;;;;;;5115031;28;20447;-70
2022/06/29 04:13:09;;;;;;;4.80;1.93;;;;;;;;;;5114728;28;20878;-70
2022/06/29 04:15:37;;;;;;;3.23;2.10;;;;;;;;;;5114491;28;20447;-70
2022/06/29 04:18:05;;;;;;;4.40;2.43;;;;;;;;;;5114145;28;20458;-70
2022/06/29 04:23:17;;;;;;;3.67;2.00;;;;;;;;;;5113713;28;20478;-70
2022/06/29 04:25:45;;;;;;;2.97;2.13;;;;;;;;;;5117038;28;20782;-70
2022/06/29 04:28:14;;;;;;;4.00;1.87;;;;;;;;;;5113771;28;20470;-70
2022/06/29 04:30:42;;;;;;;4.60;1.87;;;;;;;;;;5114241;28;20450;-70
2022/06/29 04:33:09;;;;;;;4.03;2.00;;;;;;;;;;5114279;28;20499;-70
2022/06/29 04:35:37;;;;;;;2.67;1.83;;;;;;;;;;5113815;28;20477;-70
2022/06/29 04:38:05;;;;;;;3.13;1.60;;;;;;;;;;5114441;28;20549;-70
2022/06/29 04:40:33;;;;;;;4.27;2.07;;;;;;;;;;5113850;28;20550;-70
2022/06/29 04:43:00;;;;;;;2.20;1.40;;;;;;;;;;5113188;28;20575;-70
2022/06/29 04:48:14;;;;;;;3.03;1.37;;;;;;;;;;5112216;28;20858;-70
2022/06/29 04:50:42;;;;;;;4.17;1.50;;;;;;;;;;5110555;28;20446;-70
2022/06/29 04:53:12;;;;;;;3.23;1.80;;;;;;;;;;5111170;28;20477;-70
2022/06/29 04:55:40;;;;;;;3.70;1.80;;;;;;;;;;5111985;28;20823;-70
2022/06/29 04:58:09;;;;;;;4.80;1.70;;;;;;;;;;5111702;28;20753;-71
2022/06/29 05:00:38;;;;;;;2.53;1.40;;;;;;;;;;5113107;28;20457;-70
2022/06/29 05:03:06;;;;;;;3.17;1.37;;;;;;;;;;5113167;28;20489;-70
2022/06/29 05:05:34;;;;;;;4.17;1.60;;;;;;;;;;5111019;28;20443;-70
2022/06/29 05:08:03;;;;;;;2.10;1.30;;;;;;;;;;5111656;28;20466;-70
2022/06/29 05:10:31;;;;;;;3.50;1.23;;;;;;;;;;5109547;28;20918;-70
2022/06/29 05:12:59;;;;;;;2.93;1.40;;;;;;;;;;5110749;28;20468;-72
2022/06/29 05:15:28;;;;;;;3.27;1.33;;;;;;;;;;5114403;27;20468;-71
2022/06/29 05:17:57;;;;;;;2.73;1.57;;;;;;;;;;5143438;27;20460;-70
2022/06/29 05:20:24;;;;;;;3.00;1.77;;;;;;;;;;5156253;27;20445;-71
2022/06/29 05:22:52;;;;;;;2.83;1.50;;;;;;;;;;5155952;27;20496;-70
2022/06/29 05:25:19;;;;;;;5.13;1.63;;;;;;;;;;5154002;27;20701;-71
2022/06/29 05:27:48;;;;;;;6.43;1.40;;;;;;;;;;5153860;27;20464;-71
2022/06/29 05:30:15;;;;;;;3.43;1.43;;;;;;;;;;5152943;27;20506;-71
2022/06/29 05:32:43;;;;;;;3.83;2.20;;;;;;;;;;5152270;27;20781;-71
2022/06/29 05:35:13;;;;;;;4.90;1.57;;;;;;;;;;5153220;27;20457;-70
2022/06/29 05:37:41;;;;;;;3.73;1.50;;;;;;;;;;5153455;27;20453;-71
2022/06/29 05:40:09;;;;;;;2.73;1.40;;;;;;;;;;5113494;27;20443;-70
2022/06/29 05:42:36;;;;;;;3.13;1.70;;;;;;;;;;5113184;28;20565;-71
2022/06/29 05:45:04;;;;;;;4.17;1.60;;;;;;;;;;5114387;28;20451;-71
2022/06/29 05:47:32;;;;;;;2.77;1.07;;;;;;;;;;5114668;28;20458;-71
2022/06/29 05:50:01;;;;;;;2.43;1.27;;;;;;;;;;5133441;27;20445;-71
2022/06/29 05:52:30;;;;;;;4.47;1.83;;;;;;;;;;5141640;27;20737;-71
2022/06/29 05:54:58;;;;;;;2.93;1.20;;;;;;;;;;5133391;27;20457;-71
2022/06/29 05:57:27;;;;;;;2.17;1.10;;;;;;;;;;5132899;27;20533;-71
2022/06/29 05:59:55;;;;;;;7.37;1.80;;;;;;;;;;5120224;27;20470;-71
2022/06/29 06:02:25;;;;;;;4.77;1.90;;;;;;;;;;5119957;27;20443;-71
2022/06/29 06:04:53;;;;;;;3.00;1.37;;;;;;;;;;5132916;27;20595;-72
2022/06/29 06:07:22;;;;;;;2.90;1.40;;;;;;;;;;5132131;27;20460;-71
2022/06/29 06:09:54;;;;;;;3.30;1.90;;;;;;;;;;5120763;27;20868;-71
2022/06/29 06:12:23;;;;;;;3.37;1.63;;;;;;;;;;5127361;27;20593;-71
2022/06/29 06:14:54;;;;;;;3.87;1.57;;;;;;;;;;5133198;27;20452;-71
2022/06/29 06:17:27;;;;;;;6.07;1.67;;;;;;;;;;5130978;27;20892;-70
2022/06/29 06:19:56;;;;;;;2.37;1.40;;;;;;;;;;5133736;27;20470;-70
2022/06/29 06:22:24;;;;;;;5.60;1.60;;;;;;;;;;5133033;27;20547;-71
2022/06/29 06:24:56;;;;;;;5.00;1.70;;;;;;;;;;5133946;27;20477;-70
2022/06/29 06:27:24;;;;;;;5.23;2.10;;;;;;;;;;5133136;27;20873;-70
2022/06/29 06:29:52;;;;;;;2.40;1.23;;;;;;;;;;5134304;27;20452;-71
2022/06/29 06:32:20;;;;;;;3.40;1.70;;;;;;;;;;5134976;27;20533;-70
2022/06/29 06:34:49;;;;;;;2.57;1.47;;;;;;;;;;5126936;27;20526;-71
2022/06/29 06:37:17;;;;;;;7.33;5.23;;;;;;;;;;5114135;28;20455;-71
2022/06/29 06:41:21;;;;;;;5.40;1.50;;;;;;;;;;5112498;28;20874;-70
2022/06/29 06:42:40;;;;;;;26.47;2.63;;;;;;;;;;5124219;27;20449;-71
2022/06/29 06:45:09;;;;;;;5.10;2.03;;;;;;;;;;5132999;27;21097;-71
2022/06/29 06:47:37;;;;;;;2.70;1.40;;;;;;;;;;5151534;27;20573;-71
2022/06/29 06:50:08;;;;;;;3.20;1.67;;;;;;;;;;5141591;27;20452;-71
2022/06/29 06:52:42;;;;;;;2.47;1.70;;;;;;;;;;5151888;27;20453;-72
2022/06/29 06:55:10;;;;;;;5.30;1.80;;;;;;;;;;5154991;27;20526;-72
2022/06/29 06:57:46;;;;;;;2.50;1.70;;;;;;;;;;5154323;27;20875;-72
2022/06/29 07:00:14;;;;;;;4.00;1.63;;;;;;;;;;5126958;27;21050;-71
2022/06/29 07:02:42;;;;;;;2.60;1.70;;;;;;;;;;5133836;27;20486;-71
2022/06/29 07:05:10;;;;;;;2.60;1.60;;;;;;;;;;5132482;27;20454;-71
2022/06/29 07:07:39;;;;;;;3.13;1.83;;;;;;;;;;5130715;27;20781;-70
2022/06/29 07:10:07;;;;;;;2.40;1.40;;;;;;;;;;5131080;27;21055;-71
2022/06/29 07:12:36;;;;;;;2.73;1.43;;;;;;;;;;5132815;27;20460;-70
2022/06/29 07:15:06;;;;;;;5.97;1.63;;;;;;;;;;5146888;27;20968;-70
2022/06/29 07:17:35;;;;;;;2.67;1.70;;;;;;;;;;5142104;27;20449;-71
2022/06/29 07:20:03;;;;;;;2.87;1.70;;;;;;;;;;5129585;27;20476;-70
2022/06/29 07:22:31;;;;;;;8.27;2.00;;;;;;;;;;5146910;27;20479;-70
2022/06/29 07:24:59;;;;;;;2.60;1.80;;;;;;;;;;5153460;27;20505;-70
2022/06/29 07:27:26;;;;;;;2.80;1.70;;;;;;;;;;5146443;27;20544;-71
2022/06/29 07:29:54;;;;;;;3.23;1.77;;;;;;;;;;5132895;27;20468;-73
2022/06/29 07:32:24;;;;;;;6.90;1.87;;;;;;;;;;5137311;27;20833;-71
2022/06/29 07:34:53;;;;;;;2.23;1.60;;;;;;;;;;5150547;27;20658;-72
2022/06/29 07:37:21;;;;;;;3.07;1.97;;;;;;;;;;5133058;27;20842;-71
2022/06/29 07:39:49;;;;;;;3.07;1.63;;;;;;;;;;5131262;27;20492;-71
2022/06/29 07:42:17;;;;;;;3.83;1.30;;;;;;;;;;5130244;27;20446;-71
2022/06/29 07:44:45;;;;;;;2.17;1.33;;;;;;;;;;5128999;27;20519;-70
2022/06/29 07:47:16;;;;;;;2.93;1.83;;;;;;;;;;5133204;27;20554;-71
2022/06/29 07:49:47;;;;;;;3.00;1.90;;;;;;;;;;5131819;27;20454;-71
2022/06/29 07:52:15;;;;;;;2.60;1.63;;;;;;;;;;5140624;27;20459;-71
2022/06/29 07:54:43;;;;;;;2.20;1.40;;;;;;;;;;5118537;27;20457;-71
2022/06/29 07:57:18;;;;;;;4.30;2.00;;;;;;;;;;5133524;27;20927;-72
2022/06/29 07:59:47;;;;;;;2.40;1.33;;;;;;;;;;5130605;27;20449;-72
2022/06/29 08:02:15;;;;;;;3.60;1.47;;;;;;;;;;5111954;28;20450;-71
2022/06/29 08:04:46;;;;;;;3.00;1.53;;;;;;;;;;5111645;28;20482;-72
2022/06/29 08:07:13;;;;;;;3.77;1.83;;;;;;;;;;5130644;27;20442;-71
2022/06/29 08:09:41;;;;;;;7.77;1.83;;;;;;;;;;5132919;27;20450;-70
2022/06/29 08:12:09;;;;;;;7.30;2.13;;;;;;;;;;5132890;27;20458;-69
2022/06/29 08:14:41;;;;;;;3.90;1.77;;;;;;;;;;5129599;27;20529;-72
2022/06/29 08:17:12;;;;;;;3.73;1.53;;;;;;;;;;5122692;28;20453;-72
2022/06/29 08:19:44;;;;;;;4.63;1.93;;;;;;;;;;5133024;28;20481;-72
2022/06/29 08:22:14;;;;;;;5.53;2.37;;;;;;;;;;5131230;28;20457;-72
2022/06/29 08:24:43;;;;;;;4.40;2.50;;;;;;;;;;5133014;27;20477;-71
2022/06/29 08:27:17;;;;;;;4.87;2.10;;;;;;;;;;5136699;27;20465;-72
2022/06/29 08:29:51;;;;;;;15.73;12.80;;;;;;;;;;5139966;27;20552;-72
2022/06/29 08:32:20;;;;;;;3.73;2.00;;;;;;;;;;5130232;27;20449;-70
2022/06/29 08:34:51;;;;;;;4.43;1.70;;;;;;;;;;5132384;27;20448;-72
2022/06/29 08:37:29;;;;;;;8.57;1.93;;;;;;;;;;5126601;27;20770;-71
2022/06/29 08:39:56;;;;;;;3.83;1.27;;;;;;;;;;5127810;28;20518;-71
2022/06/29 08:42:34;;;;;;;3.53;1.70;;;;;;;;;;5123908;28;20478;-72
2022/06/29 08:45:02;;;;;;;3.17;1.80;;;;;;;;;;5116915;28;20482;-71
2022/06/29 08:47:33;;;;;;;7.03;2.90;;;;;;;;;;5120782;28;20471;-71
2022/06/29 08:50:05;;;;;;;5.37;3.30;;;;;;;;;;5134532;27;20461;-70
2022/06/29 08:55:21;;;;;;;3.53;2.37;;;;;;;;;;5144376;27;20681;-71
2022/06/29 08:57:56;;;;;;;2.63;2.07;;;;;;;;;;5134690;27;20598;-71
2022/06/29 09:00:32;;;;;;;6.70;3.60;;;;;;;;;;5133331;27;20936;-71
2022/06/29 09:03:01;;;;;;;3.03;2.10;;;;;;;;;;5136186;27;20481;-71
2022/06/29 09:05:28;;;;;;;3.33;1.50;;;;;;;;;;5136346;27;20492;-70
2022/06/29 09:07:58;;;;;;;3.30;2.40;;;;;;;;;;5134497;27;20462;-71
2022/06/29 09:10:26;;;;;;;3.57;2.47;;;;;;;;;;5133456;27;20769;-70
2022/06/29 09:12:53;;;;;;;6.00;2.40;;;;;;;;;;5134025;27;20465;-71
2022/06/29 09:15:31;;;;;;;5.90;2.10;;;;;;;;;;5134349;27;20449;-70
2022/06/29 09:17:58;;;;;;;3.10;2.20;;;;;;;;;;5135440;27;20452;-70
2022/06/29 09:20:38;;;;;;;3.37;2.30;;;;;;;;;;5134660;27;20479;-70
2022/06/29 09:23:10;;;;;;;5.40;2.50;;;;;;;;;;5131887;27;20576;-71
2022/06/29 09:25:40;;;;;;;3.10;2.17;;;;;;;;;;5134883;27;20476;-70
2022/06/29 09:28:24;;;;;;;3.33;2.13;;;;;;;;;;5132106;27;20461;-70
2022/06/29 09:30:53;;;;;;;3.13;2.03;;;;;;;;;;5126763;27;20501;-72
2022/06/29 09:33:22;;;;;;;7.13;2.80;;;;;;;;;;5129485;27;20869;-70
2022/06/29 09:36:05;;;;;;;4.77;2.77;;;;;;;;;;5129241;27;20458;-70
2022/06/29 09:38:52;;;;;;;4.40;2.43;;;;;;;;;;5131808;27;20556;-71
2022/06/29 09:41:22;;;;;;;5.70;2.53;;;;;;;;;;5130551;27;20524;-70
2022/06/29 09:43:56;;;;;;;7.47;4.67;;;;;;;;;;5117454;27;21145;-69
2022/06/29 09:46:27;;;;;;;5.47;2.10;;;;;;;;;;5134105;27;20460;-70
2022/06/29 09:48:58;;;;;;;2.40;1.67;;;;;;;;;;5139280;27;20468;-70
2022/06/29 09:51:33;;;;;;;4.20;1.90;;;;;;;;;;5133169;27;20458;-73
2022/06/29 09:54:05;;;;;;;4.00;1.90;;;;;;;;;;5122548;27;20444;-70
2022/06/29 09:56:32;;;;;;;5.70;2.33;;;;;;;;;;5125400;27;20464;-69
2022/06/29 09:59:05;;;;;;;2.90;1.70;;;;;;;;;;5143513;27;20450;-70
2022/06/29 10:04:24;;;;;;;2.80;1.80;;;;;;;;;;5130666;27;20893;-71
2022/06/29 10:06:57;;;;;;;3.07;1.93;;;;;;;;;;5135041;27;20464;-71
2022/06/29 10:09:38;;;;;;;4.73;2.20;;;;;;;;;;5123632;27;20742;-71
2022/06/29 10:15:01;;;;;;;3.50;1.70;;;;;;;;;;5124888;27;20764;-71
2022/06/29 10:17:41;;;;;;;3.43;2.63;;;;;;;;;;5124126;27;20477;-71
2022/06/29 10:20:17;;;;;;;3.80;2.57;;;;;;;;;;5123304;27;20474;-70
2022/06/29 10:22:45;;;;;;;4.83;2.57;;;;;;;;;;5132363;27;20457;-70
2022/06/29 10:25:14;;;;;;;3.80;2.50;;;;;;;;;;5133124;27;20478;-71
2022/06/29 10:27:58;;;;;;;2.93;1.67;;;;;;;;;;5119685;27;20473;-71
2022/06/29 10:30:26;;;;;;;4.50;2.27;;;;;;;;;;5123781;27;20481;-71
2022/06/29 10:32:54;;;;;;;2.50;1.80;;;;;;;;;;5128483;27;20446;-71
2022/06/29 10:35:26;;;;;;;4.17;3.10;;;;;;;;;;5126862;27;20461;-71
2022/06/29 10:37:55;;;;;;;4.93;2.10;;;;;;;;;;5153909;27;20502;-70
2022/06/29 10:40:25;;;;;;;4.67;3.73;;;;;;;;;;5138229;27;20469;-71
2022/06/29 10:43:10;;;;;;;5.33;2.53;;;;;;;;;;5119807;27;20547;-71
2022/06/29 10:45:58;;;;;;;5.53;3.80;;;;;;;;;;5132355;27;20626;-72
2022/06/29 10:48:31;;;;;;;4.80;3.50;;;;;;;;;;5121272;27;20466;-70
2022/06/29 10:51:04;;;;;;;4.73;3.07;;;;;;;;;;5131265;27;20465;-70
2022/06/29 10:53:36;;;;;;;7.47;3.53;;;;;;;;;;5107922;27;20458;-70
2022/06/29 10:56:11;;;;;;;4.00;2.40;;;;;;;;;;5132254;27;20453;-69
2022/06/29 10:58:43;;;;;;;4.93;2.33;;;;;;;;;;5131210;27;20445;-70
2022/06/29 11:01:13;;;;;;;3.87;1.80;;;;;;;;;;5129504;27;20454;-70
2022/06/29 11:03:53;;;;;;;2.90;1.40;;;;;;;;;;5133569;27;20446;-70
2022/06/29 11:12:16;;;;;;;3.10;2.40;;;;;;;;;;5127125;27;20442;-71
2022/06/29 11:17:48;;;;;;;4.33;2.10;;;;;;;;;;5124696;27;20460;-71
2022/06/29 11:20:19;;;;;;;2.57;1.70;;;;;;;;;;5119849;27;20739;-70
2022/06/29 11:22:50;;;;;;;2.73;1.80;;;;;;;;;;5118748;27;20867;-73
2022/06/29 11:25:19;;;;;;;6.40;2.90;;;;;;;;;;5125278;27;20764;-70
2022/06/29 11:27:48;;;;;;;2.63;1.63;;;;;;;;;;5110953;28;20545;-70
2022/06/29 11:30:24;;;;;;;4.77;3.57;;;;;;;;;;5116007;27;20450;-70
2022/06/29 11:32:53;;;;;;;10.90;7.80;;;;;;;;;;5111359;28;20807;-71
2022/06/29 11:35:22;;;;;;;3.03;1.47;;;;;;;;;;5109903;28;20865;-72
2022/06/29 11:37:50;;;;;;;5.80;2.60;;;;;;;;;;5116624;27;21064;-71
2022/06/29 11:40:22;;;;;;;13.90;3.47;;;;;;;;;;5132282;27;20437;-71
2022/06/29 11:43:07;;;;;;;26.83;4.47;;;;;;;;;;5118364;27;20450;-71
2022/06/29 11:45:43;;;;;;;7.30;2.40;;;;;;;;;;5129575;27;20488;-70
2022/06/29 11:48:16;;;;;;;5.30;2.70;;;;;;;;;;5130744;27;20461;-70
2022/06/29 11:50:46;;;;;;;3.57;2.00;;;;;;;;;;5111137;28;20443;-71
2022/06/29 11:53:14;;;;;;;2.83;1.93;;;;;;;;;;5110976;27;20517;-71
2022/06/29 11:55:42;;;;;;;3.67;2.10;;;;;;;;;;5110702;28;20454;-70
2022/06/29 11:58:12;;;;;;;4.13;2.60;;;;;;;;;;5111523;28;20453;-70
2022/06/29 12:00:40;;;;;;;4.33;1.90;;;;;;;;;;5110673;28;20894;-70
2022/06/29 12:03:09;;;;;;;3.33;1.70;;;;;;;;;;5136652;27;20491;-70
2022/06/29 12:05:38;;;;;;;5.53;3.53;;;;;;;;;;5123219;27;20564;-70
2022/06/29 12:08:09;;;;;;;4.67;3.20;;;;;;;;;;5135925;27;20450;-71
2022/06/29 12:10:38;;;;;;;2.90;2.03;;;;;;;;;;5132101;27;20453;-72
2022/06/29 12:13:07;;;;;;;4.50;3.00;;;;;;;;;;5122903;27;20534;-70
2022/06/29 12:15:37;;;;;;;3.60;2.13;;;;;;;;;;5124700;27;20458;-70
2022/06/29 12:18:06;;;;;;;2.63;1.40;;;;;;;;;;5127197;28;20753;-71
2022/06/29 12:20:39;;;;;;;3.23;1.90;;;;;;;;;;5130115;27;20455;-70
2022/06/29 12:23:06;;;;;;;3.20;1.60;;;;;;;;;;5117573;27;20481;-70
2022/06/29 12:25:40;;;;;;;6.93;1.63;;;;;;;;;;5126395;27;20944;-71
2022/06/29 12:28:13;;;;;;;5.50;1.53;;;;;;;;;;5121314;27;20561;-70
2022/06/29 12:30:47;;;;;;;2.73;1.40;;;;;;;;;;5129729;27;20542;-71
2022/06/29 12:33:15;;;;;;;2.57;1.37;;;;;;;;;;5119849;27;20461;-70
2022/06/29 12:35:43;;;;;;;2.13;1.37;;;;;;;;;;5116439;28;20488;-72
2022/06/29 12:38:12;;;;;;;3.43;1.80;;;;;;;;;;5132851;27;20480;-71
2022/06/29 12:40:40;;;;;;;3.97;1.63;;;;;;;;;;5119425;27;21236;-71
2022/06/29 12:43:08;;;;;;;6.93;3.30;;;;;;;;;;5136297;27;20498;-70
2022/06/29 12:45:36;;;;;;;8.10;1.77;;;;;;;;;;5124246;27;20508;-71
2022/06/29 12:48:06;;;;;;;2.47;1.53;;;;;;;;;;5135108;27;20549;-70
2022/06/29 12:50:35;;;;;;;7.30;1.90;;;;;;;;;;5120382;27;20454;-71
2022/06/29 12:53:03;;;;;;;2.40;1.30;;;;;;;;;;5126477;27;20458;-70
2022/06/29 12:55:31;;;;;;;5.77;2.10;;;;;;;;;;5120127;27;20684;-71
2022/06/29 12:57:58;;;;;;;4.13;1.17;;;;;;;;;;5116960;27;20886;-70
2022/06/29 13:00:27;;;;;;;2.77;1.53;;;;;;;;;;5120100;27;20455;-71
2022/06/29 13:02:58;;;;;;;3.40;1.93;;;;;;;;;;5114052;27;20462;-71
2022/06/29 13:05:33;;;;;;;3.93;1.50;;;;;;;;;;5131741;27;20580;-71
2022/06/29 13:08:04;;;;;;;3.90;1.70;;;;;;;;;;5134558;27;20452;-71
2022/06/29 13:10:36;;;;;;;2.70;1.33;;;;;;;;;;5124766;27;20442;-71
2022/06/29 13:13:04;;;;;;;4.23;1.53;;;;;;;;;;5126993;27;20847;-71
2022/06/29 13:15:33;;;;;;;5.63;1.30;;;;;;;;;;5133326;27;20466;-71
2022/06/29 13:18:08;;;;;;;3.13;2.20;;;;;;;;;;5133748;27;20453;-71
2022/06/29 13:20:38;;;;;;;5.10;1.90;;;;;;;;;;5134117;27;20746;-71
2022/06/29 13:23:06;;;;;;;2.47;1.47;;;;;;;;;;5120083;27;20463;-71
2022/06/29 13:25:34;;;;;;;3.00;1.30;;;;;;;;;;5130352;27;20488;-71
2022/06/29 13:28:02;;;;;;;3.20;1.53;;;;;;;;;;5134697;27;20453;-71
2022/06/29 13:30:30;;;;;;;3.80;1.77;;;;;;;;;;5133597;27;20512;-71
2022/06/29 13:32:58;;;;;;;2.83;1.30;;;;;;;;;;5134986;27;20454;-70
2022/06/29 13:35:26;;;;;;;2.50;1.47;;;;;;;;;;5126908;27;20585;-69
2022/06/29 13:37:57;;;;;;;2.43;1.30;;;;;;;;;;5121523;27;20741;-70
2022/06/29 13:40:25;;;;;;;4.30;1.40;;;;;;;;;;5119930;27;20784;-70
2022/06/29 13:42:53;;;;;;;2.70;1.40;;;;;;;;;;5113311;27;20826;-70
2022/06/29 13:45:20;;;;;;;9.07;3.07;;;;;;;;;;5117594;27;20546;-71
2022/06/29 13:47:49;;;;;;;4.83;2.07;;;;;;;;;;5118984;27;20474;-70
2022/06/29 13:50:17;;;;;;;2.33;1.30;;;;;;;;;;5128452;27;20487;-71
2022/06/29 13:52:45;;;;;;;4.03;1.80;;;;;;;;;;5134171;27;20462;-71
2022/06/29 13:55:14;;;;;;;2.50;1.33;;;;;;;;;;5132875;27;20825;-71
2022/06/29 13:57:43;;;;;;;3.20;1.77;;;;;;;;;;5131584;27;20813;-70
2022/06/29 14:00:12;;;;;;;3.00;2.10;;;;;;;;;;5133470;27;20522;-70
2022/06/29 14:02:40;;;;;;;2.97;2.07;;;;;;;;;;5134141;27;21016;-69
2022/06/29 14:05:09;;;;;;;6.70;5.30;;;;;;;;;;5123159;27;20519;-69
2022/06/29 14:07:44;;;;;;;5.03;2.17;;;;;;;;;;5115827;27;20538;-70
2022/06/29 14:10:15;;;;;;;3.00;1.60;;;;;;;;;;5133905;27;20560;-70
2022/06/29 14:12:47;;;;;;;3.97;1.90;;;;;;;;;;5144350;27;20931;-70
2022/06/29 14:15:17;;;;;;;6.80;1.20;;;;;;;;;;5131860;27;20545;-70
2022/06/29 14:17:45;;;;;;;4.07;2.20;;;;;;;;;;5122561;27;21091;-70
2022/06/29 14:20:15;;;;;;;2.57;1.30;;;;;;;;;;5132745;27;21081;-71
2022/06/29 14:22:46;;;;;;;3.10;1.57;;;;;;;;;;5132539;27;20461;-70
2022/06/29 14:25:22;;;;;;;3.10;1.33;;;;;;;;;;5132045;27;20469;-71
2022/06/29 14:28:19;;;;;;;4.07;3.23;;;;;;;;;;5120465;27;20457;-71
2022/06/29 14:30:52;;;;;;;3.53;2.00;;;;;;;;;;5130829;27;20461;-72
2022/06/29 14:33:20;;;;;;;2.47;1.90;;;;;;;;;;5133496;27;20450;-70
2022/06/29 14:35:47;;;;;;;2.87;1.30;;;;;;;;;;5115980;27;21095;-71
2022/06/29 14:38:15;;;;;;;2.20;1.20;;;;;;;;;;5134842;27;20479;-70
2022/06/29 14:40:44;;;;;;;3.00;1.90;;;;;;;;;;5132188;27;20477;-72
2022/06/29 14:43:12;;;;;;;2.10;1.20;;;;;;;;;;5139186;27;20768;-72
2022/06/29 14:45:42;;;;;;;3.43;1.37;;;;;;;;;;5132614;27;20484;-71
2022/06/29 14:48:23;;;;;;;11.43;10.23;;;;;;;;;;5120158;27;20466;-72
2022/06/29 14:50:52;;;;;;;2.83;1.80;;;;;;;;;;5135943;27;20457;-72
2022/06/29 14:53:20;;;;;;;2.27;1.23;;;;;;;;;;5125114;27;20449;-72
2022/06/29 14:55:49;;;;;;;6.17;2.77;;;;;;;;;;5112644;28;20856;-71
2022/06/29 14:58:17;;;;;;;2.90;1.90;;;;;;;;;;5131771;27;20449;-71
2022/06/29 15:00:46;;;;;;;3.20;1.90;;;;;;;;;;5151895;27;20445;-71
2022/06/29 15:03:17;;;;;;;6.80;3.83;;;;;;;;;;5147668;27;20527;-70
2022/06/29 15:05:45;;;;;;;3.97;2.30;;;;;;;;;;5133233;27;20477;-70
2022/06/29 15:08:17;;;;;;;3.20;1.60;;;;;;;;;;5132869;27;20450;-72
2022/06/29 15:10:45;;;;;;;3.57;2.27;;;;;;;;;;5127263;27;20453;-71
2022/06/29 15:13:14;;;;;;;2.60;1.70;;;;;;;;;;5120945;27;20535;-71
2022/06/29 15:15:46;;;;;;;3.63;2.50;;;;;;;;;;5117199;27;20456;-71
2022/06/29 15:18:21;;;;;;;3.20;1.70;;;;;;;;;;5131088;27;20476;-71
2022/06/29 15:20:48;;;;;;;2.70;1.83;;;;;;;;;;5133415;27;20446;-71
2022/06/29 15:23:16;;;;;;;2.50;1.33;;;;;;;;;;5147101;27;20455;-71
2022/06/29 15:25:44;;;;;;;3.33;1.67;;;;;;;;;;5126659;27;20474;-71
2022/06/29 15:28:14;;;;;;;4.10;2.23;;;;;;;;;;5130822;27;20477;-71